Terminal Aerodrome Forecast
Issued by NWS North Platte, NE

Home | Current Version | Previous Version | Text Only | Print | Product List | Glossary Off
Versions: 1 2 3 4 5 6 7 8 9 10 11 12 13 14 15 16 17 18 19 20 21 22

000
FTUS43 KLBF 261100 RRA
TAFVTN
TAF
KVTN 261159Z 2612/2712 10006KT P6SM SCT120 BKN200
     FM261900 13010KT P6SM BKN050
     FM270100 12008KT P6SM BKN050 OVC120
     FM270800 11005KT P6SM BKN035 OVC050
      TEMPO 2709/2712 -TSRA BKN035CB=

USA.gov is the U.S. government's official web portal to all federal, state and local government web resources and services.